Time;durP1;ratioP1;P1;durP2;ratioP2;P2;SDS_P1;SDS_P2;PMS_P1;PMS_P2;Temp;Humidity;BMP_temperature;BMP_pressure;BME280_temperature;BME280_humidity;BME280_pressure;Samples;Min_cycle;Max_cycle;Signal;HPM_P1;HPM_P2
2023/09/14 00:00:50;;;;;;;55.25;20.15;;;;;;;;;;4977267;28;20034;-75
2023/09/14 00:03:16;;;;;;;44.83;18.95;;;;;;;;;;4975442;28;20439;-75
2023/09/14 00:05:42;;;;;;;195.75;22.92;;;;;;;;;;4985412;28;20030;-75
2023/09/14 00:08:09;;;;;;;97.05;18.80;;;;;;;;;;4979530;28;20030;-76
2023/09/14 00:10:35;;;;;;;91.47;14.88;;;;;;;;;;4977554;28;20046;-76
2023/09/14 00:13:00;;;;;;;39.70;16.35;;;;;;;;;;4981073;28;20398;-76
2023/09/14 00:15:25;;;;;;;60.17;21.33;;;;;;;;;;4981686;28;20027;-76
2023/09/14 00:17:51;;;;;;;61.08;20.95;;;;;;;;;;4977430;28;20078;-76
2023/09/14 00:20:20;;;;;;;49.40;19.77;;;;;;;;;;4978219;28;20702;-76
2023/09/14 00:22:46;;;;;;;46.22;18.52;;;;;;;;;;4981345;28;20122;-76
2023/09/14 00:25:11;;;;;;;47.60;18.13;;;;;;;;;;5039201;28;20137;-76
2023/09/14 00:27:37;;;;;;;56.20;19.10;;;;;;;;;;4976269;28;20050;-76
2023/09/14 00:30:03;;;;;;;63.10;20.45;;;;;;;;;;4984585;28;20027;-76
2023/09/14 00:32:28;;;;;;;48.88;17.63;;;;;;;;;;4977596;28;20062;-76
2023/09/14 00:34:53;;;;;;;52.92;17.95;;;;;;;;;;5046375;28;20068;-76
2023/09/14 00:37:18;;;;;;;49.38;17.60;;;;;;;;;;4980872;28;20038;-76
2023/09/14 00:39:44;;;;;;;59.72;18.33;;;;;;;;;;4980849;28;20041;-76
2023/09/14 00:42:09;;;;;;;42.08;17.23;;;;;;;;;;5060903;28;20147;-76
2023/09/14 00:44:34;;;;;;;44.25;16.23;;;;;;;;;;5045163;28;20033;-76
2023/09/14 00:47:00;;;;;;;44.20;15.75;;;;;;;;;;4978846;28;20042;-76
2023/09/14 00:49:25;;;;;;;38.30;14.68;;;;;;;;;;4979746;28;20047;-76
2023/09/14 00:51:51;;;;;;;38.25;15.30;;;;;;;;;;5045273;28;20445;-76
2023/09/14 00:54:16;;;;;;;39.45;13.95;;;;;;;;;;5064181;28;20117;-76
2023/09/14 00:56:42;;;;;;;34.95;13.70;;;;;;;;;;4977890;28;20123;-76
2023/09/14 00:59:08;;;;;;;31.52;11.80;;;;;;;;;;4978806;28;20054;-76
2023/09/14 01:01:33;;;;;;;41.30;12.77;;;;;;;;;;4974961;28;20534;-76
2023/09/14 01:03:59;;;;;;;29.88;11.93;;;;;;;;;;4974364;28;20164;-76
2023/09/14 01:06:27;;;;;;;28.95;12.10;;;;;;;;;;5045091;28;20121;-76
2023/09/14 01:08:54;;;;;;;50.75;11.55;;;;;;;;;;5031586;28;20038;-76
2023/09/14 01:11:19;;;;;;;32.63;11.25;;;;;;;;;;4979745;28;20435;-76
2023/09/14 01:13:57;;;;;;;43.10;13.07;;;;;;;;;;4981851;28;20030;-76
2023/09/14 01:16:37;;;;;;;44.03;13.90;;;;;;;;;;5044206;28;20525;-76
2023/09/14 01:19:29;;;;;;;27.25;12.10;;;;;;;;;;4980631;28;20034;-76
2023/09/14 01:22:19;;;;;;;35.28;12.63;;;;;;;;;;4973537;28;20039;-76
2023/09/14 01:24:52;;;;;;;24.85;9.55;;;;;;;;;;4975955;28;20031;-76
2023/09/14 01:27:19;;;;;;;29.38;11.20;;;;;;;;;;4977581;28;20023;-76
2023/09/14 01:29:44;;;;;;;34.08;12.15;;;;;;;;;;4979263;28;20037;-75
2023/09/14 01:32:09;;;;;;;58.22;16.45;;;;;;;;;;4979545;28;20393;-76
2023/09/14 01:34:35;;;;;;;52.60;17.00;;;;;;;;;;4983169;28;20060;-76
2023/09/14 01:37:03;;;;;;;57.92;18.58;;;;;;;;;;4978514;28;20108;-76
2023/09/14 01:39:31;;;;;;;50.15;17.65;;;;;;;;;;4982982;28;20035;-76
2023/09/14 01:41:57;;;;;;;61.75;18.85;;;;;;;;;;4981196;28;20027;-76
2023/09/14 01:44:27;;;;;;;60.67;19.35;;;;;;;;;;4983397;28;20030;-76
2023/09/14 01:46:53;;;;;;;58.03;18.00;;;;;;;;;;5043069;28;20039;-76
2023/09/14 01:49:19;;;;;;;44.92;15.73;;;;;;;;;;4946076;28;1033842;-76
2023/09/14 01:51:44;;;;;;;51.15;15.18;;;;;;;;;;5048366;28;20066;-76
2023/09/14 01:54:10;;;;;;;39.85;14.15;;;;;;;;;;4983665;28;20502;-76
2023/09/14 01:56:36;;;;;;;40.47;11.60;;;;;;;;;;4984832;28;20026;-76
2023/09/14 01:59:01;;;;;;;29.60;12.70;;;;;;;;;;5042076;28;20550;-76
2023/09/14 02:01:27;;;;;;;52.28;18.15;;;;;;;;;;5043178;28;20195;-76
2023/09/14 02:03:52;;;;;;;71.28;21.70;;;;;;;;;;4982039;28;20037;-76
2023/09/14 02:06:17;;;;;;;71.72;21.80;;;;;;;;;;4974555;28;20363;-76
2023/09/14 02:08:43;;;;;;;68.10;22.15;;;;;;;;;;5067293;28;20037;-76
2023/09/14 02:11:08;;;;;;;67.28;23.60;;;;;;;;;;4986131;28;20104;-75
2023/09/14 02:13:34;;;;;;;74.20;24.45;;;;;;;;;;4985482;28;20053;-76
2023/09/14 02:16:00;;;;;;;59.90;21.55;;;;;;;;;;4976061;28;20405;-76
2023/09/14 02:18:25;;;;;;;67.95;23.45;;;;;;;;;;5045900;28;20030;-76
2023/09/14 02:20:50;;;;;;;69.28;22.25;;;;;;;;;;4980911;28;20030;-76
2023/09/14 02:23:17;;;;;;;64.80;23.23;;;;;;;;;;4977026;28;20043;-76
2023/09/14 02:25:43;;;;;;;78.10;23.88;;;;;;;;;;4984474;28;20110;-76
2023/09/14 02:28:09;;;;;;;84.25;23.63;;;;;;;;;;4983151;28;20130;-76
2023/09/14 02:30:38;;;;;;;73.10;25.38;;;;;;;;;;4983109;28;20447;-76
2023/09/14 02:33:03;;;;;;;79.63;25.80;;;;;;;;;;4984200;28;20030;-76
2023/09/14 02:35:28;;;;;;;83.00;26.83;;;;;;;;;;4984238;28;20023;-76
2023/09/14 02:37:54;;;;;;;75.97;23.33;;;;;;;;;;4978198;28;20125;-76
2023/09/14 02:40:19;;;;;;;49.30;17.80;;;;;;;;;;5048270;28;20034;-76
2023/09/14 02:42:44;;;;;;;43.90;18.33;;;;;;;;;;4982379;28;20035;-76
2023/09/14 02:45:09;;;;;;;37.65;16.88;;;;;;;;;;5049926;28;20042;-76
2023/09/14 02:47:35;;;;;;;37.50;15.77;;;;;;;;;;4981164;28;20037;-76
2023/09/14 02:50:00;;;;;;;44.10;18.00;;;;;;;;;;5048036;28;20057;-76
2023/09/14 02:52:25;;;;;;;37.30;16.27;;;;;;;;;;5050562;28;20039;-76
2023/09/14 02:54:51;;;;;;;36.83;15.98;;;;;;;;;;4977788;28;20047;-76
2023/09/14 02:57:16;;;;;;;38.33;18.08;;;;;;;;;;5065848;28;20486;-76
2023/09/14 02:59:41;;;;;;;39.58;18.30;;;;;;;;;;4979938;28;20026;-76
2023/09/14 03:02:07;;;;;;;49.22;20.10;;;;;;;;;;5045628;28;20133;-76
2023/09/14 03:04:32;;;;;;;56.03;19.52;;;;;;;;;;4980903;28;20030;-76
2023/09/14 03:06:57;;;;;;;50.83;17.92;;;;;;;;;;4972495;28;20058;-75
2023/09/14 03:09:22;;;;;;;53.03;20.30;;;;;;;;;;4972171;28;20053;-76
2023/09/14 03:11:48;;;;;;;51.95;19.65;;;;;;;;;;4976426;28;20061;-75
2023/09/14 03:14:13;;;;;;;73.15;20.77;;;;;;;;;;4979189;28;20567;-75
2023/09/14 03:16:38;;;;;;;55.63;18.98;;;;;;;;;;4974448;28;20519;-75
2023/09/14 03:19:04;;;;;;;59.58;19.75;;;;;;;;;;4975728;28;20688;-75
2023/09/14 03:21:29;;;;;;;54.08;19.63;;;;;;;;;;4970719;28;20088;-76
2023/09/14 03:23:55;;;;;;;70.20;21.38;;;;;;;;;;5043353;28;20022;-75
2023/09/14 03:26:23;;;;;;;50.25;19.38;;;;;;;;;;5035397;28;20046;-76
2023/09/14 03:28:49;;;;;;;49.95;19.55;;;;;;;;;;5046571;28;20069;-76
2023/09/14 03:31:15;;;;;;;60.42;19.85;;;;;;;;;;5041940;28;20498;-76
2023/09/14 03:33:41;;;;;;;56.30;20.35;;;;;;;;;;4981867;28;20058;-76
2023/09/14 03:36:06;;;;;;;58.40;19.40;;;;;;;;;;5042503;28;20072;-76
2023/09/14 03:38:32;;;;;;;81.32;21.20;;;;;;;;;;4978685;28;20022;-76
2023/09/14 03:40:57;;;;;;;78.15;22.25;;;;;;;;;;4973119;28;20039;-76
2023/09/14 03:43:23;;;;;;;81.47;23.30;;;;;;;;;;4977485;28;20544;-76
2023/09/14 03:45:48;;;;;;;74.45;21.38;;;;;;;;;;4981527;28;20030;-76
2023/09/14 03:48:13;;;;;;;75.57;21.95;;;;;;;;;;4977036;28;20457;-76
2023/09/14 03:50:38;;;;;;;81.45;23.33;;;;;;;;;;4978936;28;20060;-77
2023/09/14 03:53:04;;;;;;;63.25;20.80;;;;;;;;;;4977205;28;20083;-76
2023/09/14 03:55:30;;;;;;;61.95;19.85;;;;;;;;;;4979576;28;20027;-76
2023/09/14 03:57:56;;;;;;;69.78;20.60;;;;;;;;;;4976481;28;20049;-76
2023/09/14 04:00:21;;;;;;;54.70;19.00;;;;;;;;;;4979677;28;20117;-76
2023/09/14 04:02:46;;;;;;;73.55;22.50;;;;;;;;;;4967098;28;20043;-76
2023/09/14 04:05:12;;;;;;;66.68;20.30;;;;;;;;;;4976628;28;20421;-76
2023/09/14 04:07:37;;;;;;;91.43;24.67;;;;;;;;;;5045575;28;20065;-76
2023/09/14 04:10:06;;;;;;;87.68;24.35;;;;;;;;;;4982279;28;20038;-76
2023/09/14 04:12:31;;;;;;;83.07;24.30;;;;;;;;;;4980255;28;20059;-76
2023/09/14 04:14:56;;;;;;;81.40;24.05;;;;;;;;;;4983644;28;20274;-76
2023/09/14 04:17:21;;;;;;;94.25;26.33;;;;;;;;;;4978232;28;20502;-75
2023/09/14 04:19:47;;;;;;;98.72;25.77;;;;;;;;;;4981895;28;20430;-75
2023/09/14 04:22:12;;;;;;;99.28;26.60;;;;;;;;;;4978127;28;20174;-75
2023/09/14 04:24:37;;;;;;;103.88;28.17;;;;;;;;;;4974997;28;20039;-75
2023/09/14 04:27:03;;;;;;;134.52;29.70;;;;;;;;;;4974743;28;20026;-74
2023/09/14 04:29:30;;;;;;;96.43;28.35;;;;;;;;;;4981091;28;20026;-75
2023/09/14 04:31:59;;;;;;;117.85;29.38;;;;;;;;;;5044280;28;20547;-75
2023/09/14 04:34:24;;;;;;;128.52;31.08;;;;;;;;;;4974632;28;20042;-75
2023/09/14 04:36:49;;;;;;;86.35;26.95;;;;;;;;;;4982042;28;20038;-75
2023/09/14 04:39:15;;;;;;;95.93;26.42;;;;;;;;;;4982054;28;20030;-75
2023/09/14 04:41:40;;;;;;;76.10;25.15;;;;;;;;;;5048134;28;20088;-76
2023/09/14 04:44:05;;;;;;;86.93;25.50;;;;;;;;;;4979165;28;20042;-75
2023/09/14 04:46:31;;;;;;;100.70;26.13;;;;;;;;;;4972572;28;20042;-76
2023/09/14 04:48:56;;;;;;;98.50;26.20;;;;;;;;;;4981410;28;20042;-76
2023/09/14 04:51:23;;;;;;;88.97;22.10;;;;;;;;;;5039335;28;20122;-76
2023/09/14 04:53:48;;;;;;;68.50;21.45;;;;;;;;;;4973285;28;20113;-76
2023/09/14 04:56:14;;;;;;;73.00;21.85;;;;;;;;;;4976735;28;20125;-76
2023/09/14 04:58:39;;;;;;;92.82;22.98;;;;;;;;;;5047147;28;20100;-76
2023/09/14 05:01:05;;;;;;;79.50;21.25;;;;;;;;;;4981079;28;20105;-76
2023/09/14 05:03:31;;;;;;;75.47;22.38;;;;;;;;;;4980814;28;20513;-76
2023/09/14 05:05:56;;;;;;;80.90;21.90;;;;;;;;;;4982429;28;20053;-76
2023/09/14 05:08:22;;;;;;;93.15;25.13;;;;;;;;;;4984684;28;20404;-76
2023/09/14 05:10:51;;;;;;;98.78;29.70;;;;;;;;;;5043082;28;20181;-76
2023/09/14 05:13:22;;;;;;;101.20;28.15;;;;;;;;;;4969608;28;20034;-76
2023/09/14 05:15:48;;;;;;;101.38;24.95;;;;;;;;;;4981026;28;20038;-77
2023/09/14 05:18:13;;;;;;;114.65;29.17;;;;;;;;;;4980655;28;20053;-76
2023/09/14 05:20:47;;;;;;;94.78;27.30;;;;;;;;;;4982953;28;20075;-76
2023/09/14 05:23:13;;;;;;;134.55;30.35;;;;;;;;;;4978475;28;20041;-76
2023/09/14 05:25:39;;;;;;;109.38;30.08;;;;;;;;;;4974993;28;20129;-76
2023/09/14 05:28:05;;;;;;;123.65;30.95;;;;;;;;;;4975608;28;20068;-76
2023/09/14 05:30:32;;;;;;;138.18;32.75;;;;;;;;;;4977631;28;20403;-76
2023/09/14 05:32:58;;;;;;;128.00;34.38;;;;;;;;;;4981316;28;20033;-76
2023/09/14 05:35:23;;;;;;;103.72;32.67;;;;;;;;;;4985510;28;20283;-76
2023/09/14 05:37:48;;;;;;;96.18;30.38;;;;;;;;;;4979756;28;20048;-76
2023/09/14 05:40:14;;;;;;;115.13;32.22;;;;;;;;;;4973949;28;20038;-75
2023/09/14 05:42:40;;;;;;;100.57;31.60;;;;;;;;;;4977559;28;20034;-75
2023/09/14 05:45:09;;;;;;;97.88;30.33;;;;;;;;;;4980712;28;20089;-76
2023/09/14 05:47:35;;;;;;;93.43;30.50;;;;;;;;;;5041459;28;20026;-76
2023/09/14 05:50:01;;;;;;;92.70;30.38;;;;;;;;;;4975950;28;20302;-76
2023/09/14 05:52:26;;;;;;;87.97;29.45;;;;;;;;;;5046596;28;20066;-76
2023/09/14 05:54:52;;;;;;;82.35;29.08;;;;;;;;;;4981442;28;20068;-77
2023/09/14 05:57:17;;;;;;;86.35;28.90;;;;;;;;;;4981275;28;20030;-76
2023/09/14 05:59:43;;;;;;;74.60;28.77;;;;;;;;;;4980686;28;20320;-77
2023/09/14 06:04:36;;;;;;;80.53;28.80;;;;;;;;;;4930177;28;20040;-72
2023/09/14 06:07:01;;;;;;;82.45;29.58;;;;;;;;;;4931532;28;20088;-73
2023/09/14 06:09:27;;;;;;;101.97;31.65;;;;;;;;;;4946212;28;20035;-73
2023/09/14 06:11:53;;;;;;;78.22;29.98;;;;;;;;;;4931975;29;20027;-73
2023/09/14 06:14:18;;;;;;;76.15;28.75;;;;;;;;;;4930199;29;20067;-73
2023/09/14 06:16:43;;;;;;;72.55;30.05;;;;;;;;;;4928829;29;20032;-73
2023/09/14 06:19:09;;;;;;;73.78;29.63;;;;;;;;;;4931423;28;20514;-73
2023/09/14 06:21:34;;;;;;;66.10;27.98;;;;;;;;;;4931153;28;20032;-74
2023/09/14 06:24:00;;;;;;;64.28;27.67;;;;;;;;;;4931859;29;20502;-73
2023/09/14 06:26:29;;;;;;;63.75;27.27;;;;;;;;;;4931183;28;20094;-73
2023/09/14 06:28:55;;;;;;;56.33;26.60;;;;;;;;;;4931590;28;20046;-73
2023/09/14 06:31:22;;;;;;;65.28;27.10;;;;;;;;;;4931089;28;20113;-74
2023/09/14 06:33:49;;;;;;;52.85;25.33;;;;;;;;;;4931256;28;20032;-74
2023/09/14 06:36:16;;;;;;;55.05;26.45;;;;;;;;;;4931090;28;20491;-73
2023/09/14 06:38:42;;;;;;;51.50;24.83;;;;;;;;;;4931785;29;20387;-74
2023/09/14 06:41:07;;;;;;;54.22;25.05;;;;;;;;;;4931086;28;20046;-74
2023/09/14 06:43:32;;;;;;;51.00;24.08;;;;;;;;;;4931171;28;20051;-74
2023/09/14 06:45:58;;;;;;;47.30;24.02;;;;;;;;;;4945855;29;20039;-73
2023/09/14 06:48:23;;;;;;;49.83;24.48;;;;;;;;;;4931081;28;20130;-73
2023/09/14 06:50:48;;;;;;;48.97;24.08;;;;;;;;;;4931951;29;20034;-73
2023/09/14 06:53:13;;;;;;;42.00;21.80;;;;;;;;;;4930850;28;20044;-73
2023/09/14 06:55:39;;;;;;;43.55;22.67;;;;;;;;;;4930807;28;20474;-73
2023/09/14 06:58:05;;;;;;;39.75;21.30;;;;;;;;;;4930682;28;20036;-73
2023/09/14 07:00:32;;;;;;;37.30;20.73;;;;;;;;;;4930924;28;20077;-73
2023/09/14 07:02:58;;;;;;;33.95;20.23;;;;;;;;;;4931113;29;20530;-73
2023/09/14 07:05:23;;;;;;;34.55;20.08;;;;;;;;;;4945449;28;20075;-73
2023/09/14 07:07:48;;;;;;;36.25;19.73;;;;;;;;;;4930950;28;20522;-72
2023/09/14 07:10:14;;;;;;;33.03;20.10;;;;;;;;;;4930902;28;20043;-73
2023/09/14 07:12:39;;;;;;;31.00;19.20;;;;;;;;;;4930633;28;20032;-73
2023/09/14 07:15:05;;;;;;;30.35;17.75;;;;;;;;;;4930841;28;20083;-74
2023/09/14 07:17:30;;;;;;;25.48;16.52;;;;;;;;;;4930890;29;20047;-73
2023/09/14 07:19:56;;;;;;;28.13;16.63;;;;;;;;;;4930599;28;20543;-72
2023/09/14 07:22:21;;;;;;;28.85;16.35;;;;;;;;;;4930150;28;20044;-73
2023/09/14 07:24:47;;;;;;;25.88;16.77;;;;;;;;;;4930599;28;20117;-73
2023/09/14 07:27:13;;;;;;;29.23;17.90;;;;;;;;;;4929740;28;20036;-73
2023/09/14 07:29:38;;;;;;;25.58;17.35;;;;;;;;;;4931010;29;20035;-72
2023/09/14 07:32:04;;;;;;;25.20;16.58;;;;;;;;;;4930396;28;20126;-73
2023/09/14 07:34:29;;;;;;;25.83;15.63;;;;;;;;;;4930382;28;20500;-73
2023/09/14 07:36:55;;;;;;;21.95;14.80;;;;;;;;;;4930302;28;20040;-72
2023/09/14 07:39:20;;;;;;;22.30;14.68;;;;;;;;;;4930699;28;20464;-73
2023/09/14 07:41:45;;;;;;;19.88;14.10;;;;;;;;;;4931014;29;20534;-73
2023/09/14 07:44:12;;;;;;;21.55;14.20;;;;;;;;;;4930210;28;20040;-73
2023/09/14 07:46:39;;;;;;;23.17;14.93;;;;;;;;;;4930183;28;20035;-73
2023/09/14 07:49:04;;;;;;;20.77;14.55;;;;;;;;;;4930291;28;20042;-73
2023/09/14 07:51:30;;;;;;;20.80;14.20;;;;;;;;;;4930221;28;20434;-73
2023/09/14 07:53:55;;;;;;;23.20;13.90;;;;;;;;;;4930908;29;20081;-73
2023/09/14 07:56:22;;;;;;;24.25;13.35;;;;;;;;;;4930181;28;20418;-73
2023/09/14 07:58:47;;;;;;;18.67;13.43;;;;;;;;;;4930071;28;20056;-74
2023/09/14 08:01:12;;;;;;;19.95;12.20;;;;;;;;;;4930147;28;20043;-73
2023/09/14 08:03:38;;;;;;;22.45;13.70;;;;;;;;;;4930016;28;20047;-73
2023/09/14 08:06:03;;;;;;;19.88;13.25;;;;;;;;;;4930318;28;20387;-74
2023/09/14 08:08:28;;;;;;;21.98;12.43;;;;;;;;;;4930620;29;20066;-74
2023/09/14 08:10:55;;;;;;;19.60;12.52;;;;;;;;;;4930087;28;20043;-74
2023/09/14 08:13:21;;;;;;;16.08;11.40;;;;;;;;;;4930056;28;20564;-74
2023/09/14 08:15:46;;;;;;;16.50;11.40;;;;;;;;;;4929816;28;20115;-73
2023/09/14 08:18:12;;;;;;;18.52;11.88;;;;;;;;;;4929770;28;20024;-74
2023/09/14 08:20:38;;;;;;;26.80;11.93;;;;;;;;;;4930497;29;20031;-73
2023/09/14 08:23:04;;;;;;;17.25;11.75;;;;;;;;;;4929837;28;20039;-73
2023/09/14 08:25:29;;;;;;;18.63;11.52;;;;;;;;;;4929988;28;20036;-74
2023/09/14 08:27:56;;;;;;;16.17;12.68;;;;;;;;;;4929805;28;20090;-74
2023/09/14 08:30:22;;;;;;;19.27;12.40;;;;;;;;;;4930131;28;20035;-74
2023/09/14 08:32:48;;;;;;;19.98;12.18;;;;;;;;;;4929987;29;20443;-72
2023/09/14 08:35:22;;;;;;;13.23;10.10;;;;;;;;;;4929504;28;20036;-72
2023/09/14 08:37:47;;;;;;;18.60;11.98;;;;;;;;;;4929606;28;20122;-72
2023/09/14 08:40:13;;;;;;;14.77;10.85;;;;;;;;;;4932226;28;20074;-72
2023/09/14 08:42:44;;;;;;;17.75;11.35;;;;;;;;;;4932817;28;20503;-72
2023/09/14 08:45:12;;;;;;;20.02;10.70;;;;;;;;;;4932952;28;20020;-71
2023/09/14 08:47:39;;;;;;;14.63;10.98;;;;;;;;;;4933289;29;20034;-72
2023/09/14 08:50:05;;;;;;;15.75;11.88;;;;;;;;;;4932959;28;20098;-72
2023/09/14 08:52:32;;;;;;;17.38;10.82;;;;;;;;;;4932730;28;20040;-73
2023/09/14 08:54:58;;;;;;;17.90;11.50;;;;;;;;;;4932854;28;20031;-73
2023/09/14 08:57:25;;;;;;;13.20;10.55;;;;;;;;;;4932704;28;20035;-73
2023/09/14 08:59:51;;;;;;;16.17;11.82;;;;;;;;;;4933291;28;20102;-72
2023/09/14 09:02:18;;;;;;;16.90;10.75;;;;;;;;;;4932416;28;20040;-73
2023/09/14 09:04:43;;;;;;;18.77;11.38;;;;;;;;;;4932551;28;20115;-72
2023/09/14 09:07:09;;;;;;;17.55;11.10;;;;;;;;;;4932649;28;20455;-72
2023/09/14 09:09:36;;;;;;;14.98;11.25;;;;;;;;;;4932579;28;20036;-72
2023/09/14 09:12:01;;;;;;;14.75;10.40;;;;;;;;;;4933000;29;20040;-72
2023/09/14 09:14:30;;;;;;;13.82;9.80;;;;;;;;;;4947049;29;20210;-73
2023/09/14 09:16:55;;;;;;;13.15;10.25;;;;;;;;;;4932339;28;20515;-72
2023/09/14 09:19:21;;;;;;;16.25;10.45;;;;;;;;;;4932444;28;20038;-73
2023/09/14 09:21:46;;;;;;;15.30;10.52;;;;;;;;;;4932265;28;20054;-73
2023/09/14 09:24:14;;;;;;;15.95;10.18;;;;;;;;;;4932490;28;20062;-73
2023/09/14 09:26:41;;;;;;;14.65;9.15;;;;;;;;;;4929356;29;20020;-73
2023/09/14 09:29:18;;;;;;;11.13;8.68;;;;;;;;;;4928038;28;20399;-73
2023/09/14 09:31:45;;;;;;;9.85;7.60;;;;;;;;;;4943913;28;20058;-72
2023/09/14 09:34:12;;;;;;;9.20;6.55;;;;;;;;;;4932259;28;20607;-73
2023/09/14 09:36:38;;;;;;;8.80;6.97;;;;;;;;;;4932233;28;20510;-73
2023/09/14 09:39:07;;;;;;;7.97;6.15;;;;;;;;;;4932192;28;20399;-73
2023/09/14 09:41:35;;;;;;;13.85;7.78;;;;;;;;;;4932348;29;20524;-75
2023/09/14 09:44:06;;;;;;;10.60;7.25;;;;;;;;;;4931940;28;20053;-73
2023/09/14 09:46:34;;;;;;;9.18;7.68;;;;;;;;;;4931895;28;20043;-72
2023/09/14 09:48:59;;;;;;;9.35;7.53;;;;;;;;;;4932194;28;20035;-72
2023/09/14 09:51:25;;;;;;;9.10;7.10;;;;;;;;;;4931531;28;20047;-72
2023/09/14 09:54:05;;;;;;;11.65;6.63;;;;;;;;;;4932323;29;20035;-72
2023/09/14 09:56:33;;;;;;;8.15;6.55;;;;;;;;;;4931751;29;20035;-72
2023/09/14 09:59:02;;;;;;;11.60;6.95;;;;;;;;;;4931784;28;20043;-73
2023/09/14 10:01:27;;;;;;;7.25;6.10;;;;;;;;;;4931563;28;20114;-73
2023/09/14 10:03:56;;;;;;;10.38;6.47;;;;;;;;;;4931894;28;20131;-73
2023/09/14 10:06:21;;;;;;;9.57;7.82;;;;;;;;;;4931836;28;20027;-73
2023/09/14 10:08:54;;;;;;;9.98;8.80;;;;;;;;;;4932299;29;20027;-73
2023/09/14 10:11:22;;;;;;;14.43;9.20;;;;;;;;;;4931396;28;20442;-74
2023/09/14 10:13:49;;;;;;;12.23;8.52;;;;;;;;;;4931661;28;20123;-74
2023/09/14 10:16:19;;;;;;;12.38;7.43;;;;;;;;;;4930167;29;20047;-74
2023/09/14 10:18:46;;;;;;;9.48;6.82;;;;;;;;;;4931833;28;20519;-74
2023/09/14 10:21:12;;;;;;;9.73;6.95;;;;;;;;;;4945907;28;20495;-74
2023/09/14 10:23:38;;;;;;;12.07;7.97;;;;;;;;;;4932142;29;20118;-74
2023/09/14 10:26:03;;;;;;;11.10;7.50;;;;;;;;;;4931546;28;20595;-74
2023/09/14 10:28:30;;;;;;;11.25;6.82;;;;;;;;;;4931597;28;20101;-74
2023/09/14 10:30:56;;;;;;;7.45;6.25;;;;;;;;;;4931487;28;20447;-74
2023/09/14 10:33:25;;;;;;;11.02;7.75;;;;;;;;;;4930246;28;20039;-74
2023/09/14 10:35:53;;;;;;;13.45;8.25;;;;;;;;;;4931925;29;20105;-74
2023/09/14 10:38:23;;;;;;;18.80;8.50;;;;;;;;;;4931308;28;20519;-74
2023/09/14 10:40:51;;;;;;;17.23;9.68;;;;;;;;;;4931282;28;20040;-74
2023/09/14 10:43:16;;;;;;;15.45;9.88;;;;;;;;;;4945799;28;20036;-74
2023/09/14 10:45:43;;;;;;;16.20;10.60;;;;;;;;;;4931276;28;20032;-74
2023/09/14 10:48:16;;;;;;;13.38;9.73;;;;;;;;;;4929963;28;20392;-75
2023/09/14 10:50:41;;;;;;;16.83;11.23;;;;;;;;;;4931684;29;20515;-74
2023/09/14 10:53:06;;;;;;;15.18;10.60;;;;;;;;;;4931102;28;20107;-75
2023/09/14 10:55:35;;;;;;;17.55;12.10;;;;;;;;;;4931013;28;20080;-74
2023/09/14 10:58:01;;;;;;;16.10;10.80;;;;;;;;;;4931045;28;20032;-75
2023/09/14 11:00:39;;;;;;;17.60;11.55;;;;;;;;;;4931122;28;20503;-74
2023/09/14 11:03:06;;;;;;;17.13;11.48;;;;;;;;;;4930070;28;20031;-75
2023/09/14 11:05:46;;;;;;;18.42;11.85;;;;;;;;;;4931564;29;20031;-74
2023/09/14 11:08:12;;;;;;;14.85;10.80;;;;;;;;;;4929755;29;20059;-75
2023/09/14 11:10:38;;;;;;;14.93;11.05;;;;;;;;;;4930842;28;20059;-74
2023/09/14 11:13:19;;;;;;;14.80;10.30;;;;;;;;;;4945327;28;20411;-74
2023/09/14 11:15:46;;;;;;;15.85;10.68;;;;;;;;;;4930919;28;20044;-74
2023/09/14 11:18:16;;;;;;;14.27;9.98;;;;;;;;;;4930708;28;20020;-75
2023/09/14 11:20:42;;;;;;;13.70;10.20;;;;;;;;;;4931165;29;20039;-75
2023/09/14 11:23:07;;;;;;;14.48;10.52;;;;;;;;;;4930509;28;20055;-75
2023/09/14 11:25:37;;;;;;;14.85;10.48;;;;;;;;;;4930667;28;20492;-75
2023/09/14 11:28:07;;;;;;;12.98;9.43;;;;;;;;;;4930837;28;20092;-75
2023/09/14 11:30:33;;;;;;;13.52;10.25;;;;;;;;;;4930711;28;20039;-75
2023/09/14 11:33:04;;;;;;;13.98;10.07;;;;;;;;;;4931114;29;20031;-74
2023/09/14 11:35:38;;;;;;;16.63;10.93;;;;;;;;;;4929424;29;20059;-74
2023/09/14 11:38:15;;;;;;;14.35;10.10;;;;;;;;;;4930388;28;20059;-75
2023/09/14 11:40:40;;;;;;;12.77;9.88;;;;;;;;;;4930654;28;20047;-75
2023/09/14 11:43:10;;;;;;;14.35;10.05;;;;;;;;;;4930303;28;20514;-74
2023/09/14 11:45:38;;;;;;;13.63;9.85;;;;;;;;;;4930685;28;20043;-74
2023/09/14 11:48:05;;;;;;;18.13;10.45;;;;;;;;;;4930525;28;20095;-74
2023/09/14 11:50:31;;;;;;;11.45;8.63;;;;;;;;;;4930725;29;20031;-74
2023/09/14 11:52:58;;;;;;;11.20;8.82;;;;;;;;;;4928900;28;20408;-75
2023/09/14 11:55:25;;;;;;;12.40;8.73;;;;;;;;;;4929939;28;20036;-74
2023/09/14 11:57:50;;;;;;;12.05;9.05;;;;;;;;;;4930067;28;20063;-73
2023/09/14 12:00:16;;;;;;;10.95;8.93;;;;;;;;;;4929967;28;20034;-73
2023/09/14 12:02:41;;;;;;;12.45;8.73;;;;;;;;;;4994744;22;20046;-78
2023/09/14 12:05:08;;;;;;;10.98;8.60;;;;;;;;;;5013797;28;20092;-78
2023/09/14 12:07:34;;;;;;;12.13;8.00;;;;;;;;;;5012560;28;20183;-78
2023/09/14 12:10:01;;;;;;;9.50;7.78;;;;;;;;;;5013653;28;20057;-77
2023/09/14 12:12:30;;;;;;;10.60;7.90;;;;;;;;;;5013637;28;20053;-77
2023/09/14 12:15:01;;;;;;;11.80;8.35;;;;;;;;;;5014147;28;20432;-78
2023/09/14 12:17:28;;;;;;;10.57;8.13;;;;;;;;;;5013656;28;20034;-78
2023/09/14 12:19:56;;;;;;;9.45;7.70;;;;;;;;;;5014155;28;20045;-78
2023/09/14 12:22:24;;;;;;;7.90;7.10;;;;;;;;;;5013047;28;20048;-78
2023/09/14 12:24:50;;;;;;;9.68;7.43;;;;;;;;;;5014248;28;20041;-79
2023/09/14 12:27:17;;;;;;;9.60;7.18;;;;;;;;;;5012992;28;20030;-77
2023/09/14 12:29:44;;;;;;;7.97;6.57;;;;;;;;;;5014536;28;20104;-78
2023/09/14 12:32:10;;;;;;;10.48;6.95;;;;;;;;;;5012826;28;20052;-79
2023/09/14 12:34:37;;;;;;;9.38;6.97;;;;;;;;;;5013679;28;20057;-78
2023/09/14 12:37:03;;;;;;;7.93;5.95;;;;;;;;;;5013579;28;20038;-79
2023/09/14 12:39:28;;;;;;;9.43;5.97;;;;;;;;;;5013983;28;20034;-78
2023/09/14 12:41:54;;;;;;;7.72;5.60;;;;;;;;;;5012400;28;20581;-77
2023/09/14 12:44:23;;;;;;;10.57;8.55;;;;;;;;;;5013022;28;20034;-77
2023/09/14 12:46:51;;;;;;;10.63;9.13;;;;;;;;;;5013147;28;20026;-76
2023/09/14 12:49:16;;;;;;;10.60;9.00;;;;;;;;;;5027874;28;20030;-79
2023/09/14 12:51:48;;;;;;;12.40;9.30;;;;;;;;;;5013402;28;20068;-79
2023/09/14 12:54:16;;;;;;;13.38;9.20;;;;;;;;;;5013905;28;20054;-78
2023/09/14 12:56:42;;;;;;;14.30;9.60;;;;;;;;;;5012777;28;20049;-78
2023/09/14 12:59:07;;;;;;;14.70;10.13;;;;;;;;;;5013380;28;20506;-79
2023/09/14 13:01:38;;;;;;;15.75;10.35;;;;;;;;;;5012544;28;20045;-77
2023/09/14 13:04:03;;;;;;;16.83;10.50;;;;;;;;;;5013182;28;20117;-78
2023/09/14 13:06:32;;;;;;;13.93;9.55;;;;;;;;;;5013141;28;20066;-78
2023/09/14 13:08:57;;;;;;;14.02;9.85;;;;;;;;;;5013185;28;20022;-77
2023/09/14 13:11:25;;;;;;;13.43;9.65;;;;;;;;;;5013244;28;20107;-77
2023/09/14 13:13:51;;;;;;;13.65;9.68;;;;;;;;;;5013339;28;20113;-78
2023/09/14 13:16:17;;;;;;;10.95;8.45;;;;;;;;;;5013281;28;20477;-78
2023/09/14 13:18:43;;;;;;;11.98;9.05;;;;;;;;;;5013365;28;20046;-78
2023/09/14 13:21:08;;;;;;;12.80;9.57;;;;;;;;;;5029266;28;20029;-77
2023/09/14 13:23:34;;;;;;;16.67;9.60;;;;;;;;;;5013547;28;20029;-80
2023/09/14 13:26:00;;;;;;;19.48;9.50;;;;;;;;;;4995557;28;20038;-77
2023/09/14 13:28:25;;;;;;;14.68;10.18;;;;;;;;;;4995819;28;20065;-77
2023/09/14 13:30:50;;;;;;;12.90;9.77;;;;;;;;;;4997235;28;20181;-78
2023/09/14 13:33:16;;;;;;;11.90;8.90;;;;;;;;;;4997387;28;20498;-78
2023/09/14 13:35:42;;;;;;;12.30;8.95;;;;;;;;;;4997570;28;20069;-77
2023/09/14 13:38:08;;;;;;;11.60;9.15;;;;;;;;;;4996837;28;20030;-77
2023/09/14 13:40:33;;;;;;;16.00;9.75;;;;;;;;;;4996988;28;20034;-77
2023/09/14 13:43:03;;;;;;;13.40;8.98;;;;;;;;;;4997468;28;20038;-76
2023/09/14 13:45:29;;;;;;;13.02;8.38;;;;;;;;;;4996952;28;20489;-78
2023/09/14 13:47:55;;;;;;;11.50;8.27;;;;;;;;;;4997566;28;20030;-78
2023/09/14 13:50:21;;;;;;;10.27;7.97;;;;;;;;;;4997721;28;20068;-77
2023/09/14 13:52:50;;;;;;;10.50;8.70;;;;;;;;;;4995951;28;20045;-77
2023/09/14 13:55:15;;;;;;;10.40;7.20;;;;;;;;;;4997001;28;20400;-78
2023/09/14 13:57:41;;;;;;;10.27;8.20;;;;;;;;;;4997775;28;20045;-77
2023/09/14 14:00:10;;;;;;;13.30;8.75;;;;;;;;;;4996846;28;20033;-77
2023/09/14 14:02:48;;;;;;;11.63;9.02;;;;;;;;;;4996692;28;20406;-77
2023/09/14 14:05:14;;;;;;;11.32;9.05;;;;;;;;;;4997053;28;20072;-78
2023/09/14 14:07:40;;;;;;;13.45;8.55;;;;;;;;;;4996949;28;20084;-78
2023/09/14 14:10:05;;;;;;;11.73;8.65;;;;;;;;;;4997419;28;20477;-78
2023/09/14 14:12:32;;;;;;;12.57;9.05;;;;;;;;;;4996692;28;20129;-78
2023/09/14 14:14:57;;;;;;;13.15;9.43;;;;;;;;;;4998148;28;20440;-78
2023/09/14 14:17:23;;;;;;;15.00;9.40;;;;;;;;;;4995533;28;20120;-76
2023/09/14 14:19:48;;;;;;;11.90;8.88;;;;;;;;;;4995930;28;20038;-77